Terminal Aerodrome Forecast
Issued by NWS Raleigh/Durham, NC

Current Version | Previous Version | Text Only | Print | Product List | Glossary On
Versions: 1 2 3 4 5 6 7 8 9 10 11 12 13 14 15 16 17 18 19 20 21 22 23 24 25 26 27 28
000 FTUS42 KRAH 260101 AAB TAFRDU TAF AMD KRDU 260101Z 2601/2624 32005KT P6SM SCT020 BKN150 BKN250 TEMPO 2601/2602 5SM -SHRA BKN007 OVC015 FM260200 VRB02KT P6SM BKN010 FM260800 VRB02KT 5SM BR SCT003 TEMPO 2609/2613 2SM BR BKN003 FM261300 24005KT P6SM SCT025 TEMPO 2613/2615 BKN030=

USA.gov is the U.S. government's official web portal to all federal, state and local government web resources and services.